Time;durP1;ratioP1;P1;durP2;ratioP2;P2;SDS_P1;SDS_P2;PMS_P1;PMS_P2;Temp;Humidity;BMP_temperature;BMP_pressure;BME280_temperature;BME280_humidity;BME280_pressure;Samples;Min_cycle;Max_cycle;Signal;HPM_P1;HPM_P2
2022/08/15 00:01:36;;;;;;;15.10;13.60;;;;;;;22.75;75.25;99996.62;5166698;56;1141079;-63
2022/08/15 00:06:47;;;;;;;20.97;13.28;;;;;;;22.73;75.34;99996.52;5207736;56;1139022;-66
2022/08/15 00:11:56;;;;;;;18.20;13.47;;;;;;;22.64;74.96;99988.33;5230890;55;1138949;-63
2022/08/15 00:17:09;;;;;;;16.27;13.13;;;;;;;22.54;75.42;99991.47;5187740;56;1138995;-64
2022/08/15 00:22:19;;;;;;;16.62;12.03;;;;;;;22.46;76.09;99994.36;5151406;57;1136907;-65
2022/08/15 00:27:24;;;;;;;20.97;12.37;;;;;;;22.45;76.46;99993.56;5170926;57;21109;-65
2022/08/15 00:32:34;;;;;;;19.12;13.22;;;;;;;22.32;76.71;99994.06;5151148;56;1136852;-64
2022/08/15 00:37:38;;;;;;;14.57;11.67;;;;;;;22.20;77.46;100002.46;5162713;56;1141100;-63
2022/08/15 00:42:44;;;;;;;17.00;11.53;;;;;;;22.10;78.10;99983.52;5194807;56;1143168;-65
2022/08/15 00:53:15;;;;;;;20.02;12.13;;;;;;;21.84;78.74;99990.20;5143281;57;1141097;-66
2022/08/15 00:58:22;;;;;;;17.10;12.58;;;;;;;21.85;79.75;99985.09;5143270;57;1141299;-66
2022/08/15 01:03:33;;;;;;;14.95;12.80;;;;;;;21.82;79.80;99981.49;5164418;56;1141084;-64
2022/08/15 01:08:43;;;;;;;15.07;13.13;;;;;;;21.76;79.90;99969.67;5211320;56;1141147;-64
2022/08/15 01:13:51;;;;;;;16.55;13.05;;;;;;;21.74;80.50;99970.39;5215335;55;1141066;-65
2022/08/15 01:18:58;;;;;;;24.02;12.78;;;;;;;21.69;81.00;99984.97;5185260;56;1141116;-65
2022/08/15 01:24:35;;;;;;;21.93;12.28;;;;;;;21.70;81.19;99990.66;5211962;56;1141263;-62
2022/08/15 01:29:41;;;;;;;19.95;13.72;;;;;;;21.70;80.90;99987.14;5211922;56;1141019;-63
2022/08/15 01:34:47;;;;;;;18.90;12.65;;;;;;;21.71;81.42;99984.25;5211773;56;1141314;-65
2022/08/15 01:40:02;;;;;;;16.15;12.37;;;;;;;21.75;81.14;99980.64;5211918;55;1141270;-62
2022/08/15 01:45:14;;;;;;;18.27;12.07;;;;;;;21.76;81.16;99976.40;5297486;55;1140970;-66
2022/08/15 01:50:23;;;;;;;;;;;;;;;21.73;80.89;99984.05;5304220;55;1141030;-62
2022/08/15 01:55:52;;;;;;;14.93;13.18;;;;;;;21.63;81.24;99980.93;5303214;55;974420;-64
2022/08/15 02:01:06;;;;;;;17.50;11.12;;;;;;;21.60;82.04;99974.61;5265292;55;1138940;-65
2022/08/15 02:06:20;;;;;;;18.67;13.40;;;;;;;21.48;82.13;99974.38;5212298;56;1138930;-65
2022/08/15 02:11:29;;;;;;;18.82;12.37;;;;;;;21.32;82.60;99971.53;5230944;55;1139029;-66
2022/08/15 02:16:38;;;;;;;16.87;12.07;;;;;;;21.27;83.55;99967.77;5299226;56;1139010;-63
2022/08/15 02:21:47;;;;;;;16.48;11.60;;;;;;;21.27;83.73;99966.44;5299110;55;1138994;-62
2022/08/15 02:26:55;;;;;;;21.40;13.05;;;;;;;21.23;84.06;99966.55;5298960;55;1138929;-65
2022/08/15 02:32:05;;;;;;;17.75;13.68;;;;;;;21.20;84.31;99954.84;5317994;55;1139008;-64
2022/08/15 02:37:14;;;;;;;15.10;12.50;;;;;;;21.15;84.86;99950.53;5321569;55;1139336;-64
2022/08/15 02:42:19;;;;;;;20.23;11.30;;;;;;;21.13;85.21;99945.36;5285055;55;1139058;-63
2022/08/15 02:47:26;;;;;;;15.78;13.68;;;;;;;21.04;86.57;99943.37;5232402;56;1139055;-65
2022/08/15 02:52:32;;;;;;;21.80;13.68;;;;;;;21.04;86.57;99943.37;5201421;56;1139389;-66
2022/08/15 02:57:38;;;;;;;18.10;13.72;;;;;;;21.10;86.19;99953.81;5232855;56;1139189;-62
2022/08/15 03:03:00;;;;;;;22.82;15.28;;;;;;;21.12;86.16;99950.93;5299907;55;1138990;-62
2022/08/15 03:08:09;;;;;;;20.13;14.07;;;;;;;21.11;86.33;99942.55;5322336;55;1141123;-65
2022/08/15 03:13:17;;;;;;;18.87;13.15;;;;;;;21.07;85.89;99935.42;5322184;55;1141084;-65
2022/08/15 03:18:25;;;;;;;22.17;14.28;;;;;;;21.00;85.82;99929.17;5322102;55;1141239;-64
2022/08/15 03:23:32;;;;;;;24.52;15.25;;;;;;;20.97;86.48;99932.26;5321981;55;1141364;-63
2022/08/15 03:28:38;;;;;;;27.73;14.28;;;;;;;20.99;86.91;99930.20;5321752;55;1140904;-62
2022/08/15 03:33:46;;;;;;;17.00;13.25;;;;;;;21.05;86.55;99930.24;5322005;55;1141079;-64
2022/08/15 03:38:54;;;;;;;21.75;14.80;;;;;;;21.05;86.25;99926.21;5322101;55;1141349;-63
2022/08/15 03:43:59;;;;;;;22.20;14.40;;;;;;;21.05;86.43;99930.75;5256152;55;1141143;-64
2022/08/15 03:49:06;;;;;;;19.15;14.70;;;;;;;20.99;86.64;99921.62;5233005;56;1141083;-63
2022/08/15 03:54:15;;;;;;;18.55;14.87;;;;;;;20.95;86.79;99923.56;5232850;56;1141120;-65
2022/08/15 03:59:21;;;;;;;25.23;13.55;;;;;;;20.95;87.34;99924.91;5235189;55;1140998;-63
2022/08/15 04:04:28;;;;;;;26.07;13.95;;;;;;;21.00;87.11;99923.28;5232829;56;1141042;-65
2022/08/15 04:09:34;;;;;;;25.00;15.25;;;;;;;21.08;87.21;99929.81;5232747;56;1141097;-64
2022/08/15 04:14:40;;;;;;;22.37;14.65;;;;;;;21.11;87.14;99919.69;5312340;55;1141083;-66
2022/08/15 04:19:48;;;;;;;22.45;14.55;;;;;;;21.08;87.18;99922.81;5321591;55;1140989;-64
2022/08/15 04:24:57;;;;;;;19.85;14.70;;;;;;;21.04;87.25;99923.72;5320329;55;1141006;-65
2022/08/15 04:30:03;;;;;;;19.95;14.70;;;;;;;21.00;87.52;99915.73;5302871;55;1141130;-61
2022/08/15 04:35:16;;;;;;;27.37;13.40;;;;;;;21.01;87.80;99907.98;5278367;55;1141024;-66
2022/08/15 04:40:19;;;;;;;23.05;14.85;;;;;;;21.05;87.97;99914.63;5262519;55;1140993;-66
2022/08/15 04:45:25;;;;;;;20.35;14.53;;;;;;;21.07;88.32;99919.29;5278128;55;1140924;-64
2022/08/15 04:50:38;;;;;;;18.30;12.95;;;;;;;21.08;88.63;99918.77;5268870;55;1141202;-63
2022/08/15 04:55:47;;;;;;;17.57;13.65;;;;;;;21.04;89.83;99921.03;5285756;55;1141023;-62
2022/08/15 05:01:02;;;;;;;23.65;13.53;;;;;;;21.08;89.52;99915.57;5289743;55;1141035;-64
2022/08/15 05:06:11;;;;;;;17.23;14.43;;;;;;;21.12;89.96;99911.94;5271416;55;1140938;-61
2022/08/15 05:11:20;;;;;;;17.48;13.68;;;;;;;21.17;90.60;99912.17;5291463;55;1141036;-64
2022/08/15 05:16:32;;;;;;;16.15;12.95;;;;;;;21.20;90.88;99911.29;5252842;55;1141124;-64
2022/08/15 05:21:40;;;;;;;20.20;13.58;;;;;;;21.30;90.62;99917.61;5295849;55;1141094;-63
2022/08/15 05:26:46;;;;;;;23.30;13.40;;;;;;;21.40;91.00;99916.19;5277101;55;1139049;-64
2022/08/15 05:31:52;;;;;;;23.05;12.68;;;;;;;21.53;90.92;99911.89;5291889;55;1139014;-65
2022/08/15 05:36:59;;;;;;;17.48;12.35;;;;;;;21.71;90.92;99912.09;5295642;55;1138961;-66
2022/08/15 05:42:48;;;;;;;16.67;12.80;;;;;;;21.87;90.19;99910.86;5267459;55;1139061;-63
2022/08/15 05:48:07;;;;;;;20.25;12.47;;;;;;;21.99;89.41;99914.61;5217246;55;1139146;-65
2022/08/15 05:53:37;;;;;;;14.55;11.38;;;;;;;22.14;88.63;99908.52;5297963;55;1139014;-63
2022/08/15 05:58:54;;;;;;;13.75;12.20;;;;;;;22.28;88.04;99907.46;5262098;55;1141050;-64
2022/08/15 06:04:10;;;;;;;17.45;11.70;;;;;;;22.44;87.67;99896.76;5262491;55;1141024;-65
2022/08/15 06:09:47;;;;;;;13.43;10.08;;;;;;;22.60;86.63;99899.52;5295458;55;1141113;-66
2022/08/15 06:15:02;;;;;;;18.15;10.70;;;;;;;22.80;86.36;99898.42;5239725;55;1141072;-65
2022/08/15 06:20:12;;;;;;;16.14;11.04;;;;;;;23.03;85.53;99897.92;5298358;55;1140982;-63
2022/08/15 06:25:35;;;;;;;12.53;9.83;;;;;;;23.23;83.57;99900.49;5292153;55;1141173;-66
2022/08/15 06:30:48;;;;;;;13.85;11.20;;;;;;;23.34;82.96;99905.22;5231637;56;1139064;-65
2022/08/15 06:36:10;;;;;;;16.30;10.72;;;;;;;23.45;82.50;99895.08;5232538;56;1141044;-66
2022/08/15 06:41:29;;;;;;;13.63;12.23;;;;;;;23.62;83.11;99893.23;5113690;57;1141100;-65
2022/08/15 06:46:38;;;;;;;15.70;11.70;;;;;;;23.77;81.92;99892.39;5051151;58;1141246;-64
2022/08/15 06:51:44;;;;;;;12.88;10.88;;;;;;;23.92;81.75;99890.70;5112248;57;1141041;-64
2022/08/15 06:57:03;;;;;;;17.50;12.50;;;;;;;24.09;82.13;99879.64;5139903;57;1141232;-63
2022/08/15 07:02:43;;;;;;;22.00;11.48;;;;;;;24.31;81.73;99884.13;5135243;57;1139197;-61
2022/08/15 07:08:11;;;;;;;30.75;12.88;;;;;;;24.51;80.27;99886.09;5140098;57;1139071;-66
2022/08/15 07:13:21;;;;;;;17.62;14.00;;;;;;;24.76;80.24;99877.36;5139688;57;1139031;-63
2022/08/15 07:18:37;;;;;;;18.98;13.32;;;;;;;25.04;79.48;99874.67;5043128;58;1139317;-65
2022/08/15 07:24:05;;;;;;;18.77;12.63;;;;;;;25.17;78.51;99881.25;5262149;55;1137111;-65
2022/08/15 07:29:22;;;;;;;20.50;13.35;;;;;;;25.32;78.20;99885.72;5241436;56;1141251;-66
2022/08/15 07:34:27;;;;;;;19.25;12.75;;;;;;;25.49;77.10;99877.77;5207356;56;1141008;-64
2022/08/15 07:39:43;;;;;;;18.48;13.65;;;;;;;25.72;76.94;99875.66;5232164;56;1141039;-63
2022/08/15 07:45:00;;;;;;;20.52;13.22;;;;;;;25.82;75.27;99880.78;5233200;56;1141067;-65
2022/08/15 07:50:15;;;;;;;15.53;12.33;;;;;;;25.99;75.94;99878.20;5224694;56;1141036;-65
2022/08/15 07:55:23;;;;;;;20.65;12.33;;;;;;;26.11;73.96;99876.34;5195499;56;1141155;-65
2022/08/15 08:00:34;;;;;;;23.12;13.48;;;;;;;26.26;73.78;99873.98;5139742;57;1141088;-65
2022/08/15 08:06:02;;;;;;;17.77;13.53;;;;;;;26.37;73.55;99887.79;5159649;56;1141076;-65
2022/08/15 08:11:17;;;;;;;19.00;12.35;;;;;;;26.60;73.22;99882.31;5172504;56;1141253;-64
2022/08/15 08:16:45;;;;;;;16.10;12.98;;;;;;;26.81;71.45;99893.90;5230852;56;1141019;-67
2022/08/15 08:22:18;;;;;;;16.12;12.80;;;;;;;26.98;71.79;99889.10;5176253;56;1141064;-62
2022/08/15 08:27:44;;;;;;;22.17;13.37;;;;;;;27.16;70.83;99895.17;5189885;56;1138890;-63
2022/08/15 08:33:15;;;;;;;21.95;13.38;;;;;;;27.34;69.31;99889.26;5206915;56;1139451;-62
2022/08/15 08:38:43;;;;;;;20.95;12.82;;;;;;;27.43;69.36;99893.21;5076361;57;1139006;-64
2022/08/15 08:44:11;;;;;;;14.25;12.70;;;;;;;27.57;68.52;99886.43;5070347;57;1139085;-64
2022/08/15 08:49:32;;;;;;;19.00;13.50;;;;;;;27.78;68.36;99886.25;5068643;57;1140974;-63
2022/08/15 08:55:09;;;;;;;20.05;13.20;;;;;;;27.98;65.93;99880.58;5111564;56;1141285;-64
2022/08/15 09:00:20;;;;;;;16.10;12.37;;;;;;;28.09;65.99;99877.50;5186390;56;1140351;-65
2022/08/15 09:05:38;;;;;;;16.55;12.55;;;;;;;28.23;64.33;99857.08;5121685;57;1141276;-65
2022/08/15 09:10:48;;;;;;;20.75;14.33;;;;;;;28.25;64.24;99864.98;5156026;56;1141115;-62
2022/08/15 09:15:56;;;;;;;20.92;12.43;;;;;;;28.46;62.94;99865.53;5216071;56;1141109;-67
2022/08/15 09:21:03;;;;;;;19.12;12.20;;;;;;;28.53;63.85;99870.80;5219487;56;1141040;-63
2022/08/15 09:26:40;;;;;;;20.12;11.33;;;;;;;28.56;63.54;99869.77;5204917;56;1141183;-66
2022/08/15 09:31:49;;;;;;;17.05;11.63;;;;;;;28.64;63.21;99855.70;5238178;56;1141098;-62
2022/08/15 09:37:21;;;;;;;11.50;10.30;;;;;;;28.60;62.20;99857.28;5233804;56;1141051;-66
2022/08/15 09:42:29;;;;;;;;;;;;;;;28.49;62.43;99854.16;5165869;56;1141097;-64
2022/08/15 09:47:59;;;;;;;11.78;10.08;;;;;;;28.57;62.29;99842.02;5127986;57;974266;-66
2022/08/15 09:53:24;;;;;;;13.32;9.98;;;;;;;28.80;62.13;99839.59;5126469;57;1136826;-65
2022/08/15 09:58:35;;;;;;;12.93;10.70;;;;;;;29.10;59.54;99831.75;5126444;57;1136922;-64
2022/08/15 10:03:53;;;;;;;14.53;8.88;;;;;;;29.13;58.81;99823.08;5198471;56;1138980;-63
2022/08/15 10:09:07;;;;;;;10.28;8.65;;;;;;;29.34;58.00;99825.43;5130524;56;1136893;-64
2022/08/15 10:14:25;;;;;;;15.08;7.35;;;;;;;29.64;53.36;99813.99;5280185;55;1136899;-66
2022/08/15 10:19:38;;;;;;;13.57;7.97;;;;;;;29.77;51.77;99816.84;5300555;55;1138929;-62
2022/08/15 10:24:44;;;;;;;13.60;7.67;;;;;;;29.92;51.28;99808.22;5311908;55;1138965;-63
2022/08/15 10:29:55;;;;;;;11.30;6.60;;;;;;;30.05;50.88;99801.50;5310934;55;1138954;-65
2022/08/15 10:35:23;;;;;;;9.60;7.55;;;;;;;30.29;48.10;99792.34;5271326;55;1138934;-63
2022/08/15 10:41:00;;;;;;;10.88;7.42;;;;;;;30.39;49.23;99793.77;5272302;55;1136817;-64
2022/08/15 10:46:50;;;;;;;18.92;8.38;;;;;;;30.56;47.83;99797.11;5197480;56;1138975;-63
2022/08/15 10:52:22;;;;;;;16.35;10.03;;;;;;;30.74;48.15;99798.55;4913461;60;1139351;-63
2022/08/15 10:57:34;;;;;;;20.37;10.27;;;;;;;30.69;49.20;99797.19;4915824;60;1141131;-61
2022/08/15 11:02:49;;;;;;;14.70;9.75;;;;;;;30.57;50.34;99797.39;4966277;59;1141271;-63
2022/08/15 11:07:56;;;;;;;14.15;8.70;;;;;;;30.58;50.30;99792.76;4985671;59;1139069;-63
2022/08/15 11:13:12;;;;;;;14.15;9.03;;;;;;;30.46;50.49;99786.69;5032299;58;1137098;-64
2022/08/15 11:18:30;;;;;;;15.75;9.73;;;;;;;30.47;51.26;99779.59;5038170;58;1137352;-62
2022/08/15 11:23:39;;;;;;;11.25;8.30;;;;;;;30.55;50.76;99771.48;4907859;59;1137223;-65
2022/08/15 11:28:45;;;;;;;14.28;9.30;;;;;;;30.44;49.56;99771.39;4920882;58;1136889;-63
2022/08/15 11:33:54;;;;;;;18.02;8.60;;;;;;;30.35;52.06;99768.92;5071229;58;1136896;-62
2022/08/15 11:39:03;;;;;;;13.65;8.13;;;;;;;30.38;50.50;99756.11;5042163;58;1136922;-62
2022/08/15 11:44:12;;;;;;;19.05;7.67;;;;;;;30.27;49.88;99755.77;4959191;59;1137049;-64
2022/08/15 11:49:38;;;;;;;12.82;7.65;;;;;;;30.31;49.41;99751.44;4916489;59;1137337;-65
2022/08/15 11:54:43;;;;;;;12.07;7.90;;;;;;;30.31;49.41;99751.44;5018708;58;21199;-66
2022/08/15 12:00:02;;;;;;;10.93;7.87;;;;;;;30.22;49.84;99746.23;5012316;57;1135022;-62
2022/08/15 12:05:19;;;;;;;54.45;8.00;;;;;;;30.22;49.31;99736.68;5073970;57;1138962;-66
2022/08/15 12:10:35;;;;;;;8.90;7.30;;;;;;;30.46;49.50;99727.47;4919447;59;1139038;-62
2022/08/15 12:15:45;;;;;;;11.85;6.53;;;;;;;30.65;48.27;99728.65;5076206;57;1136947;-65
2022/08/15 12:21:03;;;;;;;10.93;7.00;;;;;;;30.55;44.47;99727.27;5076651;57;1139010;-63
2022/08/15 12:26:13;;;;;;;8.98;6.95;;;;;;;30.61;45.69;99745.28;5064435;57;1138999;-66
2022/08/15 12:31:34;;;;;;;8.28;5.67;;;;;;;30.42;45.65;99725.81;5016199;58;1137147;-62
2022/08/15 12:36:42;;;;;;;7.75;5.95;;;;;;;30.30;44.84;99738.05;5068707;58;1137095;-66
2022/08/15 12:41:51;;;;;;;6.35;5.78;;;;;;;30.18;45.13;99727.92;5049914;58;1136846;-63
2022/08/15 12:46:59;;;;;;;5.72;5.17;;;;;;;30.16;44.36;99723.27;5068584;58;1136904;-63
2022/08/15 12:52:05;;;;;;;6.50;4.97;;;;;;;30.25;45.09;99719.75;5068495;57;1136900;-63
2022/08/15 12:57:10;;;;;;;7.97;5.00;;;;;;;30.34;44.17;99714.07;5072707;57;1137002;-63
2022/08/15 13:02:16;;;;;;;5.33;4.83;;;;;;;30.37;42.12;99718.17;5039323;58;1137117;-63
2022/08/15 13:07:24;;;;;;;5.50;4.65;;;;;;;30.18;41.09;99713.73;4995108;58;1137039;-63
2022/08/15 13:12:29;;;;;;;8.28;5.67;;;;;;;30.04;42.00;99698.95;4958987;58;1137162;-63
2022/08/15 13:17:35;;;;;;;11.50;5.95;;;;;;;29.97;42.57;99703.82;4975056;58;1136879;-64
2022/08/15 13:28:04;;;;;;;6.53;4.87;;;;;;;30.34;41.92;99689.52;5064320;57;1136896;-63
2022/08/15 13:33:20;;;;;;;10.63;5.53;;;;;;;30.56;41.27;99694.77;5080461;57;1136914;-63
2022/08/15 13:38:28;;;;;;;7.40;5.40;;;;;;;30.64;41.57;99685.23;5088694;57;1137049;-64
2022/08/15 13:43:34;;;;;;;8.50;5.17;;;;;;;30.66;41.49;99689.89;5106310;57;1135011;-62
2022/08/15 13:48:45;;;;;;;6.25;5.30;;;;;;;30.60;41.68;99681.41;5080493;57;1134784;-63
2022/08/15 13:53:51;;;;;;;6.73;5.87;;;;;;;30.63;42.06;99679.50;5062871;57;1134844;-62
2022/08/15 13:58:58;;;;;;;6.92;5.60;;;;;;;30.76;42.31;99668.05;5059605;58;1134889;-64
2022/08/15 14:04:16;;;;;;;10.28;6.28;;;;;;;30.92;41.56;99657.95;5024283;57;1134832;-65
2022/08/15 14:09:28;;;;;;;6.78;5.80;;;;;;;30.91;41.48;99659.04;5027935;58;1136903;-62
2022/08/15 14:14:40;;;;;;;9.45;5.83;;;;;;;30.93;41.34;99660.95;5071747;58;1134798;-61
2022/08/15 14:19:48;;;;;;;7.75;5.95;;;;;;;30.87;42.27;99669.68;5051496;57;1134834;-62
2022/08/15 14:24:53;;;;;;;7.08;5.10;;;;;;;30.88;42.26;99655.48;5060015;57;1134861;-65
2022/08/15 14:29:59;;;;;;;7.72;4.85;;;;;;;30.83;41.65;99654.14;5060051;57;1134810;-64
2022/08/15 14:35:07;;;;;;;6.08;4.97;;;;;;;30.81;40.90;99648.13;5060156;57;1134982;-63
2022/08/15 14:40:16;;;;;;;5.17;4.73;;;;;;;30.74;41.35;99636.09;5029935;57;1132792;-62
2022/08/15 14:45:23;;;;;;;8.10;4.87;;;;;;;30.70;41.31;99643.22;5143043;57;1136925;-63
2022/08/15 14:50:29;;;;;;;9.87;4.57;;;;;;;30.69;41.31;99651.95;5142952;57;1136891;-64
2022/08/15 14:55:36;;;;;;;10.30;5.05;;;;;;;30.62;40.85;99642.37;5143076;57;1136951;-65
2022/08/15 15:00:45;;;;;;;11.20;5.20;;;;;;;30.55;41.40;99643.20;5205927;55;1139093;-65
2022/08/15 15:05:50;;;;;;;12.33;5.75;;;;;;;30.49;41.60;99649.70;5331040;55;1139037;-64
2022/08/15 15:10:57;;;;;;;15.13;5.22;;;;;;;30.42;42.48;99654.87;5317893;55;1138837;-63
2022/08/15 15:16:04;;;;;;;10.80;4.90;;;;;;;30.50;42.80;99657.63;5208856;56;1138809;-65
2022/08/15 15:21:11;;;;;;;12.40;5.62;;;;;;;30.59;42.42;99656.02;5193366;56;1138942;-63
2022/08/15 15:26:18;;;;;;;8.35;6.08;;;;;;;30.68;42.72;99656.31;5191074;56;1139046;-66
2022/08/15 15:31:26;;;;;;;15.18;6.08;;;;;;;30.75;42.07;99644.56;5122713;57;1137088;-66
2022/08/15 15:36:38;;;;;;;9.18;6.20;;;;;;;30.74;43.01;99657.40;5164444;57;1139241;-62
2022/08/15 15:41:46;;;;;;;16.60;6.72;;;;;;;30.69;43.41;99656.59;5125986;57;1136840;-64
2022/08/15 15:46:57;;;;;;;10.35;5.78;;;;;;;30.62;43.73;99651.93;5122174;57;1139055;-66
2022/08/15 15:52:13;;;;;;;8.77;6.57;;;;;;;30.51;43.85;99658.45;5187551;56;1138990;-62
2022/08/15 15:57:19;;;;;;;14.15;6.10;;;;;;;30.38;44.04;99660.61;5177946;56;1137092;-65
2022/08/15 16:02:27;;;;;;;8.28;4.87;;;;;;;30.20;44.31;99650.19;5179571;56;1139133;-62
2022/08/15 16:07:33;;;;;;;8.20;5.03;;;;;;;29.97;43.64;99646.02;5205553;56;1136948;-65
2022/08/15 16:12:41;;;;;;;6.20;5.55;;;;;;;29.83;43.47;99637.20;5163933;56;1136747;-67
2022/08/15 16:17:51;;;;;;;5.95;5.35;;;;;;;29.69;43.71;99629.52;5168491;56;1137137;-67
2022/08/15 16:23:06;;;;;;;10.48;5.35;;;;;;;29.62;45.22;99631.69;5178808;56;1136769;-65
2022/08/15 16:28:20;;;;;;;6.05;5.45;;;;;;;29.55;45.84;99629.73;5236619;55;1139111;-63
2022/08/15 16:33:38;;;;;;;8.58;5.30;;;;;;;29.43;45.74;99629.66;5229924;55;1136867;-63
2022/08/15 16:39:14;;;;;;;8.30;4.80;;;;;;;29.32;45.55;99622.77;5191731;56;1137030;-61
2022/08/15 16:44:24;;;;;;;5.03;4.60;;;;;;;29.26;45.96;99624.36;5198300;56;1134833;-66
2022/08/15 16:49:35;;;;;;;6.72;5.72;;;;;;;29.27;46.33;99635.53;5198527;56;1134827;-65
2022/08/15 16:55:14;;;;;;;9.33;4.97;;;;;;;29.31;46.50;99632.56;5198228;56;1134815;-64
2022/08/15 17:00:35;;;;;;;15.48;5.25;;;;;;;29.25;46.72;99633.06;5242832;56;1134756;-63
2022/08/15 17:06:04;;;;;;;8.73;4.72;;;;;;;29.15;47.02;99642.54;5257899;55;1134930;-62
2022/08/15 17:11:17;;;;;;;6.95;6.20;;;;;;;29.09;47.51;99640.85;5242331;56;1137051;-65
2022/08/15 17:16:41;;;;;;;13.20;5.72;;;;;;;29.04;48.30;99648.97;5255745;56;1136933;-63
2022/08/15 17:21:51;;;;;;;8.95;5.20;;;;;;;29.00;48.90;99662.31;5210053;56;1139159;-66
2022/08/15 17:27:16;;;;;;;11.00;6.58;;;;;;;28.98;49.70;99669.91;5209645;56;1137137;-65
2022/08/15 17:32:25;;;;;;;15.60;6.50;;;;;;;28.90;50.23;99675.82;5221968;55;1138959;-62
2022/08/15 17:37:32;;;;;;;8.63;5.55;;;;;;;28.82;50.74;99674.13;5279604;55;1139256;-63
2022/08/15 17:42:40;;;;;;;10.95;6.22;;;;;;;28.78;50.89;99684.67;5263621;55;1136888;-64
2022/08/15 17:48:10;;;;;;;13.30;6.03;;;;;;;28.72;51.11;99693.06;5311139;55;1138995;-63
2022/08/15 17:53:51;;;;;;;9.10;6.05;;;;;;;28.63;51.31;99681.27;5288751;55;1138937;-65
2022/08/15 17:59:08;;;;;;;6.90;6.30;;;;;;;28.58;51.38;99681.74;5311340;55;1136926;-63
2022/08/15 18:04:13;;;;;;;11.50;5.57;;;;;;;28.48;51.55;99683.02;5221892;56;1136885;-63
2022/08/15 18:09:23;;;;;;;7.50;6.10;;;;;;;28.41;51.69;99702.27;5222194;56;1138978;-65
2022/08/15 18:14:29;;;;;;;11.30;5.95;;;;;;;28.36;51.93;99713.09;5298362;55;1134252;-62
2022/08/15 18:19:36;;;;;;;10.45;6.15;;;;;;;28.30;52.14;99719.00;5311068;55;1136968;-65
2022/08/15 18:24:53;;;;;;;39.92;6.65;;;;;;;28.24;52.49;99725.47;5314638;55;1136909;-65
2022/08/15 18:30:08;;;;;;;19.15;7.08;;;;;;;28.13;52.61;99720.92;5285817;55;1137080;-62
2022/08/15 18:35:36;;;;;;;21.62;6.58;;;;;;;28.05;52.98;99720.02;5261230;55;1136889;-65
2022/08/15 18:41:08;;;;;;;28.38;6.72;;;;;;;27.91;53.45;99718.22;5292723;55;1136984;-65
2022/08/15 18:46:30;;;;;;;20.20;6.57;;;;;;;27.81;53.99;99729.47;5253808;55;1139161;-65
2022/08/15 18:51:53;;;;;;;10.28;6.45;;;;;;;27.72;54.28;99733.16;5307549;55;1138929;-64
2022/08/15 18:57:07;;;;;;;10.43;6.50;;;;;;;27.66;54.73;99739.05;5322074;55;1139227;-65
2022/08/15 19:02:32;;;;;;;9.30;6.80;;;;;;;27.61;55.10;99734.09;5260911;55;1138956;-65
2022/08/15 19:08:00;;;;;;;14.55;7.00;;;;;;;27.52;55.67;99730.94;5232504;56;1136971;-61
2022/08/15 19:13:34;;;;;;;8.88;6.70;;;;;;;27.43;56.40;99719.39;5284096;55;1139023;-65
2022/08/15 19:19:02;;;;;;;11.18;7.17;;;;;;;27.27;57.21;99709.65;5321624;55;1136914;-65
2022/08/15 19:24:09;;;;;;;8.13;6.62;;;;;;;27.12;57.88;99706.69;5313481;55;1139029;-65
2022/08/15 19:29:37;;;;;;;9.80;7.53;;;;;;;27.03;58.01;99715.50;5201368;55;1136825;-64
2022/08/15 19:35:19;;;;;;;7.65;6.95;;;;;;;26.99;58.50;99725.19;5192640;56;1134781;-65
2022/08/15 19:40:57;;;;;;;12.90;7.70;;;;;;;26.93;58.75;99731.88;5194748;55;1135012;-64
2022/08/15 19:46:37;;;;;;;10.45;6.95;;;;;;;26.89;59.08;99740.18;5185768;56;1136959;-63
2022/08/15 19:51:50;;;;;;;9.85;7.12;;;;;;;26.83;59.25;99740.35;5124002;56;1139148;-65
2022/08/15 19:57:17;;;;;;;11.68;7.75;;;;;;;26.76;59.96;99739.66;5157031;56;1137119;-64
2022/08/15 20:02:31;;;;;;;17.35;8.60;;;;;;;26.70;60.18;99745.55;5215352;55;1138985;-66
2022/08/15 20:07:43;;;;;;;11.70;7.17;;;;;;;26.65;60.60;99744.09;5243475;55;1138961;-63
2022/08/15 20:13:05;;;;;;;11.57;6.92;;;;;;;26.60;61.01;99752.12;5247376;55;1139029;-65
2022/08/15 20:18:28;;;;;;;8.83;7.37;;;;;;;26.58;60.94;99756.98;5243412;55;1139255;-64
2022/08/15 20:23:50;;;;;;;9.50;7.17;;;;;;;26.54;61.04;99768.84;5242532;55;1136911;-66
2022/08/15 20:29:19;;;;;;;17.15;6.72;;;;;;;26.50;61.18;99780.41;5314128;55;1136903;-63
2022/08/15 20:34:29;;;;;;;13.32;7.72;;;;;;;26.41;61.36;99784.05;5318367;55;1138985;-65
2022/08/15 20:39:39;;;;;;;12.27;7.87;;;;;;;26.26;61.60;99789.94;5243591;55;1139066;-65
2022/08/15 20:45:12;;;;;;;8.85;7.80;;;;;;;26.24;62.04;99790.70;5179054;56;1139247;-63
2022/08/15 20:50:17;;;;;;;10.65;6.67;;;;;;;26.30;62.15;99790.30;5145834;57;1134746;-66
2022/08/15 20:55:34;;;;;;;12.07;6.40;;;;;;;26.34;62.20;99787.41;5218919;55;1136858;-66
2022/08/15 21:01:29;;;;;;;11.08;7.47;;;;;;;26.19;62.38;99796.55;5268621;55;1136942;-63
2022/08/15 21:06:43;;;;;;;15.80;6.67;;;;;;;26.05;62.98;99786.48;5322175;55;1134890;-65
2022/08/15 21:12:19;;;;;;;14.13;8.28;;;;;;;26.01;63.54;99777.18;5296391;55;1138937;-62
2022/08/15 21:17:52;;;;;;;11.78;6.22;;;;;;;25.96;63.50;99777.09;5242029;56;1138938;-64
2022/08/15 21:23:14;;;;;;;17.75;7.55;;;;;;;25.87;63.77;99773.07;5237080;56;1138992;-63
2022/08/15 21:28:33;;;;;;;8.23;7.40;;;;;;;25.78;64.17;99779.92;5242029;56;1138999;-63
2022/08/15 21:33:46;;;;;;;10.58;7.50;;;;;;;25.76;64.58;99793.70;5242157;56;1136872;-65
2022/08/15 21:39:09;;;;;;;9.23;7.40;;;;;;;25.69;64.61;99792.15;5273713;55;1138926;-65
2022/08/15 21:44:39;;;;;;;8.93;7.35;;;;;;;25.62;65.05;99790.10;5259099;55;1136872;-64
2022/08/15 21:49:55;;;;;;;11.63;7.78;;;;;;;25.61;65.24;99785.18;5242311;55;1137036;-62
2022/08/15 21:55:09;;;;;;;14.47;9.45;;;;;;;25.67;65.53;99780.19;5241892;56;1139117;-64
2022/08/15 22:00:28;;;;;;;18.23;9.55;;;;;;;25.69;65.49;99763.70;5146713;57;1137166;-63
2022/08/15 22:05:43;;;;;;;9.90;8.85;;;;;;;25.56;65.71;99765.56;5155319;56;1137219;-63
2022/08/15 22:10:59;;;;;;;10.55;8.90;;;;;;;25.48;66.29;99769.16;5166119;56;1135066;-63
2022/08/15 22:16:06;;;;;;;15.88;8.80;;;;;;;25.42;66.58;99766.02;5241715;56;1136936;-66
2022/08/15 22:21:19;;;;;;;11.22;9.25;;;;;;;25.25;67.30;99769.94;5241857;56;1136970;-62
2022/08/15 22:26:27;;;;;;;13.43;10.13;;;;;;;25.20;68.18;99779.31;5241741;56;1136964;-64
2022/08/15 22:31:35;;;;;;;17.23;9.45;;;;;;;25.23;68.61;99774.76;5241692;56;1138934;-65
2022/08/15 22:36:41;;;;;;;16.20;10.23;;;;;;;25.24;69.05;99772.34;5241859;56;1136924;-63
2022/08/15 22:41:49;;;;;;;14.33;10.40;;;;;;;25.27;69.40;99787.30;5215904;56;1136946;-64
2022/08/15 22:46:57;;;;;;;13.20;10.40;;;;;;;25.15;70.27;99776.46;5150924;56;1137056;-66
2022/08/15 22:52:07;;;;;;;14.43;9.75;;;;;;;25.15;70.27;99776.46;5151093;56;1141034;-65
2022/08/15 22:57:23;;;;;;;15.47;10.43;;;;;;;25.12;71.05;99778.27;5116686;56;1138903;-65
2022/08/15 23:02:36;;;;;;;14.23;10.43;;;;;;;25.10;71.69;99787.14;5204640;56;1141093;-65
2022/08/15 23:07:55;;;;;;;14.30;9.60;;;;;;;24.98;73.01;99787.64;5232504;56;1141113;-66
2022/08/15 23:13:11;;;;;;;16.37;10.28;;;;;;;24.86;74.89;99794.34;5241006;56;1139381;-62
2022/08/15 23:18:24;;;;;;;13.95;11.25;;;;;;;24.76;73.97;99799.45;5133056;56;1141263;-62
2022/08/15 23:23:34;;;;;;;15.18;9.93;;;;;;;24.62;76.18;99796.10;5034506;58;1141206;-66
2022/08/15 23:28:45;;;;;;;12.18;9.58;;;;;;;24.50;76.70;99793.88;5090700;57;1139209;-63
2022/08/15 23:33:54;;;;;;;19.30;10.03;;;;;;;24.43;76.00;99798.55;5141593;57;1139117;-66
2022/08/15 23:39:04;;;;;;;13.43;9.53;;;;;;;24.38;76.55;99793.81;5141604;57;1141215;-66
2022/08/15 23:44:10;;;;;;;20.50;10.58;;;;;;;24.35;76.68;99785.33;5139556;57;1139068;-64
2022/08/15 23:49:16;;;;;;;16.82;10.08;;;;;;;24.26;77.38;99788.88;5141598;57;1141118;-62
2022/08/15 23:54:27;;;;;;;10.72;9.63;;;;;;;24.21;77.49;99788.69;5140391;56;1141139;-64